Ada, Minnesota
Current Conditions -  °F | °C
As of 2:15 AM on Saturday 29 Nov 2014 (Local Time) from K3N8 Reporting Station
Broken Clouds Broken Clouds  
Wind Chill:   Ceiling: 1100
Heat Index: 19°   Visibility: 10mi
Dew Point: 16°   Wind: 9mph
Humidity: 87%   Direction: 160°SSE
Pressure: 29.49"   Gusts: NA
Location:  47.3°N, 96.52°W
Report Text: K3N8 290815Z AUTO 16008KT 10SM BKN011 BKN100 M07/M09 A2949 RMK AO2 T10711090
Loading
Personal Weather Stations






























Interactive Weather Map New forecast layout! Learn more

10-Day Weather Forecast

Advertisements
Track Severe Weather on mobile